sensor_id;sensor_type;location;lat;lon;timestamp;P1;durP1;ratioP1;P2;durP2;ratioP2
70814;SDS011;58428;49.478;10.986;2023-02-15T00:01:52;22.60;;;9.52;;
70814;SDS011;58428;49.478;10.986;2023-02-15T00:04:19;20.88;;;8.45;;
70814;SDS011;58428;49.478;10.986;2023-02-15T00:06:47;19.88;;;8.98;;
70814;SDS011;58428;49.478;10.986;2023-02-15T00:09:14;19.25;;;9.02;;
70814;SDS011;58428;49.478;10.986;2023-02-15T00:11:41;21.95;;;9.85;;
70814;SDS011;58428;49.478;10.986;2023-02-15T00:16:40;20.52;;;9.10;;
70814;SDS011;58428;49.478;10.986;2023-02-15T00:19:07;19.58;;;8.73;;
70814;SDS011;58428;49.478;10.986;2023-02-15T00:21:34;21.70;;;9.40;;
70814;SDS011;58428;49.478;10.986;2023-02-15T00:26:27;19.58;;;8.52;;
70814;SDS011;58428;49.478;10.986;2023-02-15T00:28:54;20.05;;;9.13;;
70814;SDS011;58428;49.478;10.986;2023-02-15T00:31:27;21.45;;;9.18;;
70814;SDS011;58428;49.478;10.986;2023-02-15T00:33:55;21.48;;;8.52;;
70814;SDS011;58428;49.478;10.986;2023-02-15T00:36:21;23.02;;;9.20;;
70814;SDS011;58428;49.478;10.986;2023-02-15T00:38:46;20.65;;;8.68;;
70814;SDS011;58428;49.478;10.986;2023-02-15T00:41:12;17.70;;;7.75;;
70814;SDS011;58428;49.478;10.986;2023-02-15T00:43:40;17.85;;;8.35;;
70814;SDS011;58428;49.478;10.986;2023-02-15T00:46:05;17.85;;;7.80;;
70814;SDS011;58428;49.478;10.986;2023-02-15T00:48:31;16.40;;;7.85;;
70814;SDS011;58428;49.478;10.986;2023-02-15T00:50:57;20.77;;;8.93;;
70814;SDS011;58428;49.478;10.986;2023-02-15T00:53:25;20.73;;;8.65;;
70814;SDS011;58428;49.478;10.986;2023-02-15T00:55:53;17.95;;;7.85;;
70814;SDS011;58428;49.478;10.986;2023-02-15T00:58:19;20.08;;;8.65;;
70814;SDS011;58428;49.478;10.986;2023-02-15T01:00:46;21.00;;;8.98;;
70814;SDS011;58428;49.478;10.986;2023-02-15T01:03:12;17.90;;;7.78;;
70814;SDS011;58428;49.478;10.986;2023-02-15T01:05:42;19.48;;;8.60;;
70814;SDS011;58428;49.478;10.986;2023-02-15T01:08:07;18.50;;;8.50;;
70814;SDS011;58428;49.478;10.986;2023-02-15T01:10:35;18.85;;;7.80;;
70814;SDS011;58428;49.478;10.986;2023-02-15T01:13:02;19.80;;;8.43;;
70814;SDS011;58428;49.478;10.986;2023-02-15T01:15:27;17.52;;;7.70;;
70814;SDS011;58428;49.478;10.986;2023-02-15T01:17:56;19.58;;;7.90;;
70814;SDS011;58428;49.478;10.986;2023-02-15T01:20:23;18.30;;;7.78;;
70814;SDS011;58428;49.478;10.986;2023-02-15T01:22:52;21.58;;;9.68;;
70814;SDS011;58428;49.478;10.986;2023-02-15T01:25:19;20.60;;;8.60;;
70814;SDS011;58428;49.478;10.986;2023-02-15T01:27:46;19.13;;;8.50;;
70814;SDS011;58428;49.478;10.986;2023-02-15T01:30:13;18.48;;;8.27;;
70814;SDS011;58428;49.478;10.986;2023-02-15T01:32:39;16.48;;;7.72;;
70814;SDS011;58428;49.478;10.986;2023-02-15T01:35:05;19.15;;;7.88;;
70814;SDS011;58428;49.478;10.986;2023-02-15T01:37:33;16.67;;;8.05;;
70814;SDS011;58428;49.478;10.986;2023-02-15T01:40:02;16.65;;;7.45;;
70814;SDS011;58428;49.478;10.986;2023-02-15T01:42:31;19.13;;;8.02;;
70814;SDS011;58428;49.478;10.986;2023-02-15T01:44:58;18.50;;;7.95;;
70814;SDS011;58428;49.478;10.986;2023-02-15T01:53:03;18.98;;;7.72;;
70814;SDS011;58428;49.478;10.986;2023-02-15T01:55:38;16.95;;;7.18;;
70814;SDS011;58428;49.478;10.986;2023-02-15T01:58:07;17.83;;;7.32;;
70814;SDS011;58428;49.478;10.986;2023-02-15T02:00:34;18.55;;;8.15;;
70814;SDS011;58428;49.478;10.986;2023-02-15T02:03:00;22.33;;;8.15;;
70814;SDS011;58428;49.478;10.986;2023-02-15T02:05:26;19.35;;;8.43;;
70814;SDS011;58428;49.478;10.986;2023-02-15T02:07:54;19.35;;;8.43;;
70814;SDS011;58428;49.478;10.986;2023-02-15T02:10:23;20.15;;;9.25;;
70814;SDS011;58428;49.478;10.986;2023-02-15T02:12:50;21.20;;;8.85;;
70814;SDS011;58428;49.478;10.986;2023-02-15T02:15:19;23.10;;;9.25;;
70814;SDS011;58428;49.478;10.986;2023-02-15T02:17:54;18.98;;;8.35;;
70814;SDS011;58428;49.478;10.986;2023-02-15T02:31:42;20.55;;;8.30;;
70814;SDS011;58428;49.478;10.986;2023-02-15T02:34:12;19.50;;;7.97;;
70814;SDS011;58428;49.478;10.986;2023-02-15T02:37:12;20.98;;;8.60;;
70814;SDS011;58428;49.478;10.986;2023-02-15T02:42:42;18.38;;;7.30;;
70814;SDS011;58428;49.478;10.986;2023-02-15T02:48:13;18.48;;;7.90;;
70814;SDS011;58428;49.478;10.986;2023-02-15T02:50:42;20.20;;;8.80;;
70814;SDS011;58428;49.478;10.986;2023-02-15T02:53:08;20.33;;;8.02;;
70814;SDS011;58428;49.478;10.986;2023-02-15T02:55:44;20.30;;;8.75;;
70814;SDS011;58428;49.478;10.986;2023-02-15T02:58:16;18.67;;;8.13;;
70814;SDS011;58428;49.478;10.986;2023-02-15T03:03:20;17.10;;;7.38;;
70814;SDS011;58428;49.478;10.986;2023-02-15T03:05:52;18.67;;;7.70;;
70814;SDS011;58428;49.478;10.986;2023-02-15T03:08:22;17.95;;;7.93;;
70814;SDS011;58428;49.478;10.986;2023-02-15T03:10:53;17.40;;;7.85;;
70814;SDS011;58428;49.478;10.986;2023-02-15T03:13:22;19.20;;;7.75;;
70814;SDS011;58428;49.478;10.986;2023-02-15T03:15:48;22.13;;;8.25;;
70814;SDS011;58428;49.478;10.986;2023-02-15T03:18:39;19.83;;;8.00;;
70814;SDS011;58428;49.478;10.986;2023-02-15T03:21:17;18.05;;;7.85;;
70814;SDS011;58428;49.478;10.986;2023-02-15T03:23:49;16.50;;;7.18;;
70814;SDS011;58428;49.478;10.986;2023-02-15T03:26:18;17.10;;;7.07;;
70814;SDS011;58428;49.478;10.986;2023-02-15T03:28:45;16.73;;;7.10;;
70814;SDS011;58428;49.478;10.986;2023-02-15T03:31:14;15.70;;;6.88;;
70814;SDS011;58428;49.478;10.986;2023-02-15T03:33:54;17.77;;;7.00;;
70814;SDS011;58428;49.478;10.986;2023-02-15T03:36:29;15.52;;;6.47;;
70814;SDS011;58428;49.478;10.986;2023-02-15T03:39:01;15.57;;;6.63;;
70814;SDS011;58428;49.478;10.986;2023-02-15T03:41:48;16.30;;;6.78;;
70814;SDS011;58428;49.478;10.986;2023-02-15T03:44:28;18.35;;;7.57;;
70814;SDS011;58428;49.478;10.986;2023-02-15T03:47:00;17.05;;;7.15;;
70814;SDS011;58428;49.478;10.986;2023-02-15T03:49:40;16.85;;;6.88;;
70814;SDS011;58428;49.478;10.986;2023-02-15T03:52:24;16.45;;;6.68;;
70814;SDS011;58428;49.478;10.986;2023-02-15T03:54:53;15.10;;;6.50;;
70814;SDS011;58428;49.478;10.986;2023-02-15T04:00:24;16.98;;;7.38;;
70814;SDS011;58428;49.478;10.986;2023-02-15T04:03:24;13.85;;;6.07;;
70814;SDS011;58428;49.478;10.986;2023-02-15T04:06:02;14.70;;;6.60;;
70814;SDS011;58428;49.478;10.986;2023-02-15T04:08:32;15.88;;;6.90;;
70814;SDS011;58428;49.478;10.986;2023-02-15T04:11:18;14.93;;;5.93;;
70814;SDS011;58428;49.478;10.986;2023-02-15T04:16:12;13.23;;;5.78;;
70814;SDS011;58428;49.478;10.986;2023-02-15T04:18:41;15.20;;;6.03;;
70814;SDS011;58428;49.478;10.986;2023-02-15T04:21:29;14.43;;;6.05;;
70814;SDS011;58428;49.478;10.986;2023-02-15T04:24:14;15.27;;;6.30;;
70814;SDS011;58428;49.478;10.986;2023-02-15T04:26:59;14.63;;;6.00;;
70814;SDS011;58428;49.478;10.986;2023-02-15T04:29:27;14.88;;;6.18;;
70814;SDS011;58428;49.478;10.986;2023-02-15T04:31:53;16.77;;;6.85;;
70814;SDS011;58428;49.478;10.986;2023-02-15T04:34:21;16.40;;;6.38;;
70814;SDS011;58428;49.478;10.986;2023-02-15T04:36:47;16.38;;;6.70;;
70814;SDS011;58428;49.478;10.986;2023-02-15T04:39:14;16.13;;;6.88;;
70814;SDS011;58428;49.478;10.986;2023-02-15T04:41:43;15.45;;;6.85;;
70814;SDS011;58428;49.478;10.986;2023-02-15T04:44:12;14.65;;;6.53;;
70814;SDS011;58428;49.478;10.986;2023-02-15T04:46:37;15.95;;;7.05;;
70814;SDS011;58428;49.478;10.986;2023-02-15T04:49:04;16.33;;;6.60;;
70814;SDS011;58428;49.478;10.986;2023-02-15T04:51:31;14.88;;;6.03;;
70814;SDS011;58428;49.478;10.986;2023-02-15T04:56:23;16.00;;;6.72;;
70814;SDS011;58428;49.478;10.986;2023-02-15T04:58:50;16.25;;;6.82;;
70814;SDS011;58428;49.478;10.986;2023-02-15T05:03:42;16.08;;;6.53;;
70814;SDS011;58428;49.478;10.986;2023-02-15T05:06:08;16.73;;;6.65;;
70814;SDS011;58428;49.478;10.986;2023-02-15T05:08:34;14.25;;;6.50;;
70814;SDS011;58428;49.478;10.986;2023-02-15T05:11:02;14.77;;;6.07;;
70814;SDS011;58428;49.478;10.986;2023-02-15T05:13:27;17.45;;;6.90;;
70814;SDS011;58428;49.478;10.986;2023-02-15T05:15:53;17.48;;;6.43;;
70814;SDS011;58428;49.478;10.986;2023-02-15T05:18:20;15.85;;;6.90;;
70814;SDS011;58428;49.478;10.986;2023-02-15T05:20:46;16.80;;;7.18;;
70814;SDS011;58428;49.478;10.986;2023-02-15T05:23:12;18.23;;;7.20;;
70814;SDS011;58428;49.478;10.986;2023-02-15T05:25:39;19.85;;;7.88;;
70814;SDS011;58428;49.478;10.986;2023-02-15T05:30:57;17.45;;;7.07;;
70814;SDS011;58428;49.478;10.986;2023-02-15T05:33:27;17.83;;;7.13;;
70814;SDS011;58428;49.478;10.986;2023-02-15T05:35:52;18.33;;;7.35;;
70814;SDS011;58428;49.478;10.986;2023-02-15T05:38:18;17.25;;;7.30;;
70814;SDS011;58428;49.478;10.986;2023-02-15T05:40:45;16.88;;;7.20;;
70814;SDS011;58428;49.478;10.986;2023-02-15T05:43:11;17.90;;;7.22;;
70814;SDS011;58428;49.478;10.986;2023-02-15T05:45:37;18.00;;;7.57;;
70814;SDS011;58428;49.478;10.986;2023-02-15T05:48:03;17.98;;;8.27;;
70814;SDS011;58428;49.478;10.986;2023-02-15T05:50:30;18.88;;;8.20;;
70814;SDS011;58428;49.478;10.986;2023-02-15T05:55:21;17.30;;;7.57;;
70814;SDS011;58428;49.478;10.986;2023-02-15T05:57:47;19.42;;;7.90;;
70814;SDS011;58428;49.478;10.986;2023-02-15T06:00:13;19.02;;;7.47;;
70814;SDS011;58428;49.478;10.986;2023-02-15T06:02:40;20.58;;;9.18;;
70814;SDS011;58428;49.478;10.986;2023-02-15T06:05:06;17.73;;;7.82;;
70814;SDS011;58428;49.478;10.986;2023-02-15T06:07:33;18.35;;;8.60;;
70814;SDS011;58428;49.478;10.986;2023-02-15T06:09:58;19.52;;;8.48;;
70814;SDS011;58428;49.478;10.986;2023-02-15T06:12:25;20.13;;;8.73;;
70814;SDS011;58428;49.478;10.986;2023-02-15T06:17:18;17.95;;;7.88;;
70814;SDS011;58428;49.478;10.986;2023-02-15T06:19:44;19.10;;;8.50;;
70814;SDS011;58428;49.478;10.986;2023-02-15T06:22:09;17.80;;;7.00;;
70814;SDS011;58428;49.478;10.986;2023-02-15T06:24:35;21.48;;;8.57;;
70814;SDS011;58428;49.478;10.986;2023-02-15T06:27:01;17.95;;;7.90;;
70814;SDS011;58428;49.478;10.986;2023-02-15T06:29:27;19.90;;;7.97;;
70814;SDS011;58428;49.478;10.986;2023-02-15T06:31:52;19.85;;;8.23;;
70814;SDS011;58428;49.478;10.986;2023-02-15T06:34:18;18.23;;;7.82;;
70814;SDS011;58428;49.478;10.986;2023-02-15T06:36:43;20.65;;;8.23;;
70814;SDS011;58428;49.478;10.986;2023-02-15T06:39:10;18.27;;;7.72;;
70814;SDS011;58428;49.478;10.986;2023-02-15T06:41:35;20.23;;;8.25;;
70814;SDS011;58428;49.478;10.986;2023-02-15T06:44:00;18.75;;;7.63;;
70814;SDS011;58428;49.478;10.986;2023-02-15T06:46:26;19.95;;;8.45;;
70814;SDS011;58428;49.478;10.986;2023-02-15T06:48:51;21.40;;;8.65;;
70814;SDS011;58428;49.478;10.986;2023-02-15T06:51:21;21.17;;;8.63;;
70814;SDS011;58428;49.478;10.986;2023-02-15T06:53:49;22.27;;;8.07;;
70814;SDS011;58428;49.478;10.986;2023-02-15T06:56:15;20.67;;;8.48;;
70814;SDS011;58428;49.478;10.986;2023-02-15T06:58:40;20.00;;;8.48;;
70814;SDS011;58428;49.478;10.986;2023-02-15T07:01:07;21.38;;;8.48;;
70814;SDS011;58428;49.478;10.986;2023-02-15T07:03:34;19.27;;;8.18;;
70814;SDS011;58428;49.478;10.986;2023-02-15T07:06:01;17.98;;;7.90;;
70814;SDS011;58428;49.478;10.986;2023-02-15T07:08:30;20.23;;;8.10;;
70814;SDS011;58428;49.478;10.986;2023-02-15T07:10:57;18.90;;;7.93;;
70814;SDS011;58428;49.478;10.986;2023-02-15T07:13:43;18.48;;;8.10;;
70814;SDS011;58428;49.478;10.986;2023-02-15T07:16:08;20.52;;;8.30;;
70814;SDS011;58428;49.478;10.986;2023-02-15T07:18:38;22.08;;;8.02;;
70814;SDS011;58428;49.478;10.986;2023-02-15T07:21:05;20.65;;;8.48;;
70814;SDS011;58428;49.478;10.986;2023-02-15T07:23:37;20.70;;;8.52;;
70814;SDS011;58428;49.478;10.986;2023-02-15T07:26:03;21.95;;;8.70;;
70814;SDS011;58428;49.478;10.986;2023-02-15T07:31:00;21.45;;;8.52;;
70814;SDS011;58428;49.478;10.986;2023-02-15T07:33:27;19.13;;;7.88;;
70814;SDS011;58428;49.478;10.986;2023-02-15T07:35:55;23.80;;;9.05;;
70814;SDS011;58428;49.478;10.986;2023-02-15T07:38:27;23.00;;;8.68;;
70814;SDS011;58428;49.478;10.986;2023-02-15T07:40:59;21.73;;;9.23;;
70814;SDS011;58428;49.478;10.986;2023-02-15T07:43:26;22.33;;;7.93;;
70814;SDS011;58428;49.478;10.986;2023-02-15T07:45:52;21.50;;;8.88;;
70814;SDS011;58428;49.478;10.986;2023-02-15T07:48:18;22.00;;;8.80;;
70814;SDS011;58428;49.478;10.986;2023-02-15T07:50:43;23.63;;;8.65;;
70814;SDS011;58428;49.478;10.986;2023-02-15T07:53:09;21.33;;;8.57;;
70814;SDS011;58428;49.478;10.986;2023-02-15T07:55:34;22.85;;;9.35;;
70814;SDS011;58428;49.478;10.986;2023-02-15T07:58:00;20.20;;;9.07;;
70814;SDS011;58428;49.478;10.986;2023-02-15T08:00:27;19.92;;;8.13;;
70814;SDS011;58428;49.478;10.986;2023-02-15T08:03:23;19.48;;;7.88;;
70814;SDS011;58428;49.478;10.986;2023-02-15T08:05:54;18.45;;;8.25;;
70814;SDS011;58428;49.478;10.986;2023-02-15T08:08:22;20.02;;;7.75;;
70814;SDS011;58428;49.478;10.986;2023-02-15T08:10:59;20.65;;;8.57;;
70814;SDS011;58428;49.478;10.986;2023-02-15T08:21:50;20.27;;;8.45;;
70814;SDS011;58428;49.478;10.986;2023-02-15T08:24:22;20.23;;;8.68;;
70814;SDS011;58428;49.478;10.986;2023-02-15T08:26:49;17.48;;;7.88;;
70814;SDS011;58428;49.478;10.986;2023-02-15T08:29:17;20.70;;;8.52;;
70814;SDS011;58428;49.478;10.986;2023-02-15T08:31:44;20.48;;;8.80;;
70814;SDS011;58428;49.478;10.986;2023-02-15T08:34:12;18.48;;;7.97;;
70814;SDS011;58428;49.478;10.986;2023-02-15T08:36:40;18.75;;;8.10;;
70814;SDS011;58428;49.478;10.986;2023-02-15T08:39:08;18.00;;;8.00;;
70814;SDS011;58428;49.478;10.986;2023-02-15T08:44:02;20.25;;;8.68;;
70814;SDS011;58428;49.478;10.986;2023-02-15T08:46:30;19.58;;;8.55;;
70814;SDS011;58428;49.478;10.986;2023-02-15T08:49:02;21.23;;;9.10;;
70814;SDS011;58428;49.478;10.986;2023-02-15T08:51:30;21.85;;;9.45;;
70814;SDS011;58428;49.478;10.986;2023-02-15T08:54:00;17.95;;;8.55;;
70814;SDS011;58428;49.478;10.986;2023-02-15T08:56:28;19.30;;;8.32;;
70814;SDS011;58428;49.478;10.986;2023-02-15T08:58:58;18.27;;;8.63;;
70814;SDS011;58428;49.478;10.986;2023-02-15T09:01:24;20.35;;;8.73;;
70814;SDS011;58428;49.478;10.986;2023-02-15T09:03:52;22.00;;;9.43;;
70814;SDS011;58428;49.478;10.986;2023-02-15T09:06:22;20.05;;;8.60;;
70814;SDS011;58428;49.478;10.986;2023-02-15T09:08:48;19.83;;;8.27;;
70814;SDS011;58428;49.478;10.986;2023-02-15T09:11:19;19.75;;;8.85;;
70814;SDS011;58428;49.478;10.986;2023-02-15T09:13:52;18.75;;;8.60;;
70814;SDS011;58428;49.478;10.986;2023-02-15T09:16:20;19.30;;;8.70;;
70814;SDS011;58428;49.478;10.986;2023-02-15T09:18:46;21.92;;;9.23;;
70814;SDS011;58428;49.478;10.986;2023-02-15T09:21:13;21.70;;;9.02;;
70814;SDS011;58428;49.478;10.986;2023-02-15T09:23:45;22.65;;;9.48;;
70814;SDS011;58428;49.478;10.986;2023-02-15T09:26:14;19.73;;;8.57;;
70814;SDS011;58428;49.478;10.986;2023-02-15T09:28:41;21.67;;;9.13;;
70814;SDS011;58428;49.478;10.986;2023-02-15T09:31:08;17.98;;;8.27;;
70814;SDS011;58428;49.478;10.986;2023-02-15T09:33:37;20.73;;;8.80;;
70814;SDS011;58428;49.478;10.986;2023-02-15T09:36:04;22.30;;;8.93;;
70814;SDS011;58428;49.478;10.986;2023-02-15T09:38:43;19.98;;;8.40;;
70814;SDS011;58428;49.478;10.986;2023-02-15T10:17:19;22.80;;;9.43;;
70814;SDS011;58428;49.478;10.986;2023-02-15T10:19:55;18.45;;;9.07;;
70814;SDS011;58428;49.478;10.986;2023-02-15T10:25:16;18.55;;;8.80;;
70814;SDS011;58428;49.478;10.986;2023-02-15T10:28:05;19.15;;;8.70;;
70814;SDS011;58428;49.478;10.986;2023-02-15T10:30:37;19.75;;;8.48;;
70814;SDS011;58428;49.478;10.986;2023-02-15T10:33:17;20.98;;;8.85;;
70814;SDS011;58428;49.478;10.986;2023-02-15T10:37:09;19.38;;;9.05;;
70814;SDS011;58428;49.478;10.986;2023-02-15T10:42:00;19.92;;;8.68;;
70814;SDS011;58428;49.478;10.986;2023-02-15T10:53:21;17.52;;;8.35;;
70814;SDS011;58428;49.478;10.986;2023-02-15T11:01:27;20.08;;;8.30;;
70814;SDS011;58428;49.478;10.986;2023-02-15T11:06:53;20.25;;;9.27;;
70814;SDS011;58428;49.478;10.986;2023-02-15T11:09:23;19.27;;;9.27;;
70814;SDS011;58428;49.478;10.986;2023-02-15T11:11:54;20.70;;;9.00;;
70814;SDS011;58428;49.478;10.986;2023-02-15T11:17:13;19.05;;;8.77;;
70814;SDS011;58428;49.478;10.986;2023-02-15T11:19:52;18.23;;;8.23;;
70814;SDS011;58428;49.478;10.986;2023-02-15T11:22:22;18.88;;;8.80;;
70814;SDS011;58428;49.478;10.986;2023-02-15T11:27:19;18.83;;;8.70;;
70814;SDS011;58428;49.478;10.986;2023-02-15T11:29:54;18.08;;;8.70;;
70814;SDS011;58428;49.478;10.986;2023-02-15T11:40:23;19.20;;;9.07;;
70814;SDS011;58428;49.478;10.986;2023-02-15T11:42:54;19.20;;;8.52;;
70814;SDS011;58428;49.478;10.986;2023-02-15T11:48:11;21.55;;;9.30;;
70814;SDS011;58428;49.478;10.986;2023-02-15T11:50:41;19.65;;;9.50;;
70814;SDS011;58428;49.478;10.986;2023-02-15T11:53:10;19.15;;;9.70;;
70814;SDS011;58428;49.478;10.986;2023-02-15T11:55:39;22.85;;;10.77;;
70814;SDS011;58428;49.478;10.986;2023-02-15T12:01:00;20.75;;;9.52;;
70814;SDS011;58428;49.478;10.986;2023-02-15T12:03:39;23.55;;;10.43;;
70814;SDS011;58428;49.478;10.986;2023-02-15T12:06:29;19.23;;;9.27;;
70814;SDS011;58428;49.478;10.986;2023-02-15T12:09:06;22.67;;;10.13;;
70814;SDS011;58428;49.478;10.986;2023-02-15T12:11:54;20.50;;;9.38;;
70814;SDS011;58428;49.478;10.986;2023-02-15T12:14:49;20.70;;;9.05;;
70814;SDS011;58428;49.478;10.986;2023-02-15T12:17:32;21.05;;;9.73;;
70814;SDS011;58428;49.478;10.986;2023-02-15T12:22:48;22.35;;;9.88;;
70814;SDS011;58428;49.478;10.986;2023-02-15T12:25:29;20.17;;;9.80;;
70814;SDS011;58428;49.478;10.986;2023-02-15T12:28:02;22.00;;;10.15;;
70814;SDS011;58428;49.478;10.986;2023-02-15T12:30:34;20.35;;;10.32;;
70814;SDS011;58428;49.478;10.986;2023-02-15T12:33:05;19.80;;;10.02;;
70814;SDS011;58428;49.478;10.986;2023-02-15T12:35:47;22.05;;;10.80;;
70814;SDS011;58428;49.478;10.986;2023-02-15T12:38:23;24.35;;;10.88;;
70814;SDS011;58428;49.478;10.986;2023-02-15T12:41:24;23.15;;;10.63;;
70814;SDS011;58428;49.478;10.986;2023-02-15T12:44:35;22.63;;;11.18;;
70814;SDS011;58428;49.478;10.986;2023-02-15T12:49:44;22.77;;;10.65;;
70814;SDS011;58428;49.478;10.986;2023-02-15T12:52:28;23.52;;;11.15;;
70814;SDS011;58428;49.478;10.986;2023-02-15T12:54:54;26.92;;;11.95;;
70814;SDS011;58428;49.478;10.986;2023-02-15T13:02:47;22.48;;;10.55;;
70814;SDS011;58428;49.478;10.986;2023-02-15T13:08:11;25.02;;;12.00;;
70814;SDS011;58428;49.478;10.986;2023-02-15T13:10:51;23.60;;;11.60;;
70814;SDS011;58428;49.478;10.986;2023-02-15T13:13:26;25.45;;;12.55;;
70814;SDS011;58428;49.478;10.986;2023-02-15T13:15:58;24.60;;;12.50;;
70814;SDS011;58428;49.478;10.986;2023-02-15T13:18:30;25.33;;;11.95;;
70814;SDS011;58428;49.478;10.986;2023-02-15T13:21:32;23.02;;;11.73;;
70814;SDS011;58428;49.478;10.986;2023-02-15T13:23:55;22.90;;;10.75;;
70814;SDS011;58428;49.478;10.986;2023-02-15T13:26:26;25.85;;;12.15;;
70814;SDS011;58428;49.478;10.986;2023-02-15T13:28:57;26.45;;;12.63;;
70814;SDS011;58428;49.478;10.986;2023-02-15T13:31:30;26.45;;;12.02;;
70814;SDS011;58428;49.478;10.986;2023-02-15T13:33:59;25.83;;;11.73;;
70814;SDS011;58428;49.478;10.986;2023-02-15T13:42:26;26.63;;;12.10;;
70814;SDS011;58428;49.478;10.986;2023-02-15T13:52:55;24.45;;;11.77;;
70814;SDS011;58428;49.478;10.986;2023-02-15T13:55:36;25.00;;;12.60;;
70814;SDS011;58428;49.478;10.986;2023-02-15T14:12:42;26.05;;;13.00;;
70814;SDS011;58428;49.478;10.986;2023-02-15T14:15:47;29.77;;;13.25;;
70814;SDS011;58428;49.478;10.986;2023-02-15T14:18:24;25.90;;;12.52;;
70814;SDS011;58428;49.478;10.986;2023-02-15T14:21:03;28.02;;;13.32;;
70814;SDS011;58428;49.478;10.986;2023-02-15T14:29:24;29.60;;;12.77;;
70814;SDS011;58428;49.478;10.986;2023-02-15T14:32:12;29.30;;;12.57;;
70814;SDS011;58428;49.478;10.986;2023-02-15T14:35:05;26.92;;;12.60;;
70814;SDS011;58428;49.478;10.986;2023-02-15T14:41:01;26.77;;;12.70;;
70814;SDS011;58428;49.478;10.986;2023-02-15T14:46:50;26.55;;;12.27;;
70814;SDS011;58428;49.478;10.986;2023-02-15T14:49:24;22.95;;;11.55;;
70814;SDS011;58428;49.478;10.986;2023-02-15T14:51:56;24.25;;;12.23;;
70814;SDS011;58428;49.478;10.986;2023-02-15T14:59:36;27.33;;;12.90;;
70814;SDS011;58428;49.478;10.986;2023-02-15T15:05:29;25.10;;;13.30;;
70814;SDS011;58428;49.478;10.986;2023-02-15T15:08:01;25.67;;;12.55;;
70814;SDS011;58428;49.478;10.986;2023-02-15T15:13:00;27.33;;;13.07;;
70814;SDS011;58428;49.478;10.986;2023-02-15T15:19:02;26.95;;;12.85;;
70814;SDS011;58428;49.478;10.986;2023-02-15T15:27:40;26.42;;;12.93;;
70814;SDS011;58428;49.478;10.986;2023-02-15T15:32:37;26.80;;;13.25;;
70814;SDS011;58428;49.478;10.986;2023-02-15T15:49:41;29.30;;;13.40;;
70814;SDS011;58428;49.478;10.986;2023-02-15T15:52:14;27.42;;;13.43;;
70814;SDS011;58428;49.478;10.986;2023-02-15T15:54:43;28.83;;;14.10;;
70814;SDS011;58428;49.478;10.986;2023-02-15T15:57:19;30.83;;;14.63;;
70814;SDS011;58428;49.478;10.986;2023-02-15T15:59:54;32.08;;;14.27;;
70814;SDS011;58428;49.478;10.986;2023-02-15T16:02:24;31.23;;;14.60;;
70814;SDS011;58428;49.478;10.986;2023-02-15T16:04:51;28.90;;;14.48;;
70814;SDS011;58428;49.478;10.986;2023-02-15T16:09:57;31.80;;;14.48;;
70814;SDS011;58428;49.478;10.986;2023-02-15T16:12:25;29.02;;;13.70;;
70814;SDS011;58428;49.478;10.986;2023-02-15T16:14:54;33.65;;;14.98;;
70814;SDS011;58428;49.478;10.986;2023-02-15T16:17:25;29.50;;;13.68;;
70814;SDS011;58428;49.478;10.986;2023-02-15T16:19:59;31.20;;;15.25;;
70814;SDS011;58428;49.478;10.986;2023-02-15T16:22:31;36.78;;;16.02;;
70814;SDS011;58428;49.478;10.986;2023-02-15T16:27:56;32.92;;;14.90;;
70814;SDS011;58428;49.478;10.986;2023-02-15T16:30:29;29.88;;;14.77;;
70814;SDS011;58428;49.478;10.986;2023-02-15T16:33:04;34.15;;;15.10;;
70814;SDS011;58428;49.478;10.986;2023-02-15T16:35:53;30.00;;;13.95;;
70814;SDS011;58428;49.478;10.986;2023-02-15T16:41:29;32.85;;;14.88;;
70814;SDS011;58428;49.478;10.986;2023-02-15T16:43:56;31.77;;;13.07;;
70814;SDS011;58428;49.478;10.986;2023-02-15T16:46:31;31.25;;;13.52;;
70814;SDS011;58428;49.478;10.986;2023-02-15T16:51:33;34.15;;;13.65;;
70814;SDS011;58428;49.478;10.986;2023-02-15T16:54:05;30.08;;;13.65;;
70814;SDS011;58428;49.478;10.986;2023-02-15T16:56:33;32.35;;;14.30;;
70814;SDS011;58428;49.478;10.986;2023-02-15T16:59:01;36.80;;;14.93;;
70814;SDS011;58428;49.478;10.986;2023-02-15T17:01:30;37.05;;;15.93;;
70814;SDS011;58428;49.478;10.986;2023-02-15T17:04:13;30.10;;;14.05;;
70814;SDS011;58428;49.478;10.986;2023-02-15T17:07:18;29.75;;;13.77;;
70814;SDS011;58428;49.478;10.986;2023-02-15T17:09:51;30.75;;;14.35;;
70814;SDS011;58428;49.478;10.986;2023-02-15T17:15:32;33.58;;;14.35;;
70814;SDS011;58428;49.478;10.986;2023-02-15T17:18:10;35.40;;;14.88;;
70814;SDS011;58428;49.478;10.986;2023-02-15T17:20:43;32.58;;;14.65;;
70814;SDS011;58428;49.478;10.986;2023-02-15T17:23:30;31.00;;;14.18;;
70814;SDS011;58428;49.478;10.986;2023-02-15T17:26:00;35.20;;;14.85;;
70814;SDS011;58428;49.478;10.986;2023-02-15T17:28:36;35.83;;;15.25;;
70814;SDS011;58428;49.478;10.986;2023-02-15T17:31:12;31.33;;;14.60;;
70814;SDS011;58428;49.478;10.986;2023-02-15T17:33:43;35.53;;;15.48;;
70814;SDS011;58428;49.478;10.986;2023-02-15T17:36:16;37.47;;;15.95;;
70814;SDS011;58428;49.478;10.986;2023-02-15T17:39:18;37.75;;;16.05;;
70814;SDS011;58428;49.478;10.986;2023-02-15T17:41:44;37.85;;;16.33;;
70814;SDS011;58428;49.478;10.986;2023-02-15T17:44:10;38.83;;;16.73;;
70814;SDS011;58428;49.478;10.986;2023-02-15T17:46:39;36.67;;;15.85;;
70814;SDS011;58428;49.478;10.986;2023-02-15T17:49:05;37.28;;;16.75;;
70814;SDS011;58428;49.478;10.986;2023-02-15T17:51:31;36.78;;;14.93;;
70814;SDS011;58428;49.478;10.986;2023-02-15T17:54:01;36.13;;;15.43;;
70814;SDS011;58428;49.478;10.986;2023-02-15T17:56:45;36.10;;;16.08;;
70814;SDS011;58428;49.478;10.986;2023-02-15T17:59:11;33.42;;;13.93;;
70814;SDS011;58428;49.478;10.986;2023-02-15T18:01:47;37.72;;;15.52;;
70814;SDS011;58428;49.478;10.986;2023-02-15T18:04:33;36.80;;;15.18;;
70814;SDS011;58428;49.478;10.986;2023-02-15T18:07:19;35.08;;;14.50;;
70814;SDS011;58428;49.478;10.986;2023-02-15T18:10:16;33.38;;;13.95;;
70814;SDS011;58428;49.478;10.986;2023-02-15T18:13:01;35.78;;;14.65;;
70814;SDS011;58428;49.478;10.986;2023-02-15T18:15:27;31.80;;;13.98;;
70814;SDS011;58428;49.478;10.986;2023-02-15T18:17:54;34.90;;;14.90;;
70814;SDS011;58428;49.478;10.986;2023-02-15T18:20:24;34.28;;;14.70;;
70814;SDS011;58428;49.478;10.986;2023-02-15T18:22:54;32.67;;;14.20;;
70814;SDS011;58428;49.478;10.986;2023-02-15T18:25:22;37.63;;;14.93;;
70814;SDS011;58428;49.478;10.986;2023-02-15T18:27:51;33.78;;;14.80;;
70814;SDS011;58428;49.478;10.986;2023-02-15T18:30:25;40.10;;;15.70;;
70814;SDS011;58428;49.478;10.986;2023-02-15T18:32:58;39.17;;;16.92;;
70814;SDS011;58428;49.478;10.986;2023-02-15T18:35:27;41.17;;;15.77;;
70814;SDS011;58428;49.478;10.986;2023-02-15T18:37:58;36.90;;;14.98;;
70814;SDS011;58428;49.478;10.986;2023-02-15T18:40:26;39.53;;;16.83;;
70814;SDS011;58428;49.478;10.986;2023-02-15T18:42:55;47.17;;;19.42;;
70814;SDS011;58428;49.478;10.986;2023-02-15T18:45:25;38.15;;;15.85;;
70814;SDS011;58428;49.478;10.986;2023-02-15T18:47:59;40.03;;;15.85;;
70814;SDS011;58428;49.478;10.986;2023-02-15T18:50:26;36.38;;;15.38;;